Time;durP1;ratioP1;P1;durP2;ratioP2;P2;SDS_P1;SDS_P2;PMS_P1;PMS_P2;Temp;Humidity;BMP_temperature;BMP_pressure;BME280_temperature;BME280_humidity;BME280_pressure;Samples;Min_cycle;Max_cycle;Signal;HPM_P1;HPM_P2
2022/03/08 00:01:32;;;;;;;10.25;5.82;;;;;;;;;;5051271;28;20045;-68
2022/03/08 00:03:58;;;;;;;9.80;5.80;;;2.30;99.90;;;;;;5034624;28;20045;-68
2022/03/08 00:06:26;;;;;;;11.27;6.63;;;;;;;;;;5051240;28;20033;-68
2022/03/08 00:08:52;;;;;;;8.90;5.43;;;;;;;;;;5051265;28;20334;-66
2022/03/08 00:11:18;;;;;;;11.32;5.22;;;;;;;;;;5050828;28;20040;-68
2022/03/08 00:13:44;;;;;;;9.77;5.60;;;;;;;;;;5034581;28;20129;-68
2022/03/08 00:16:11;;;;;;;8.98;5.25;;;;;;;;;;5050998;28;20071;-68
2022/03/08 00:18:38;;;;;;;10.52;6.38;;;;;;;;;;5051192;28;20115;-69
2022/03/08 00:21:07;;;;;;;9.55;5.68;;;2.30;99.90;;;;;;5050940;28;20052;-69
2022/03/08 00:23:33;;;;;;;10.18;5.78;;;;;;;;;;5050683;28;20590;-68
2022/03/08 00:26:02;;;;;;;8.93;5.90;;;;;;;;;;5050821;28;20041;-68
2022/03/08 00:28:28;;;;;;;11.52;5.50;;;;;;;;;;5050985;28;20037;-68
2022/03/08 00:30:54;;;;;;;8.38;5.10;;;2.10;99.90;;;;;;5050475;28;20127;-69
2022/03/08 00:33:20;;;;;;;8.80;5.47;;;2.00;99.90;;;;;;5050595;28;20470;-69
2022/03/08 00:35:46;;;;;;;10.65;5.38;;;2.20;99.90;;;;;;5034445;28;20403;-68
2022/03/08 00:38:12;;;;;;;8.43;4.97;;;;;;;;;;5050816;28;20029;-69
2022/03/08 00:40:38;;;;;;;8.25;5.20;;;;;;;;;;5050269;28;20040;-69
2022/03/08 00:43:04;;;;;;;8.30;5.20;;;;;;;;;;5050790;28;20049;-68
2022/03/08 00:45:30;;;;;;;10.20;5.60;;;;;;;;;;5033953;28;20538;-68
2022/03/08 00:47:55;;;;;;;8.93;5.20;;;2.00;99.90;;;;;;5050519;28;20071;-68
2022/03/08 00:50:23;;;;;;;10.20;5.00;;;;;;;;;;5050448;28;20041;-68
2022/03/08 00:52:50;;;;;;;10.82;5.65;;;;;;;;;;5049853;28;20053;-68
2022/03/08 00:55:18;;;;;;;10.00;4.95;;;;;;;;;;5050443;28;20041;-68
2022/03/08 00:57:44;;;;;;;11.13;5.65;;;;;;;;;;5050362;28;20552;-68
2022/03/08 01:00:13;;;;;;;10.60;5.78;;;1.70;99.90;;;;;;5049593;28;20036;-69
2022/03/08 01:02:39;;;;;;;8.73;4.90;;;;;;;;;;5033996;28;20517;-68
2022/03/08 01:05:05;;;;;;;9.68;5.40;;;;;;;;;;5033787;28;20144;-68
2022/03/08 01:07:31;;;;;;;8.40;5.55;;;;;;;;;;5050358;28;20102;-68
2022/03/08 01:09:57;;;;;;;11.73;5.32;;;;;;;;;;5033385;28;20068;-68
2022/03/08 01:12:23;;;;;;;7.28;4.97;;;;;;;;;;5050418;28;20044;-68
2022/03/08 01:14:50;;;;;;;8.48;5.00;;;;;;;;;;5033664;28;20098;-68
2022/03/08 01:17:16;;;;;;;8.98;5.63;;;;;;;;;;5050167;28;20102;-71
2022/03/08 01:19:42;;;;;;;6.85;4.65;;;;;;;;;;5050192;28;20038;-71
2022/03/08 01:22:08;;;;;;;8.75;4.88;;;;;;;;;;5050121;28;20069;-68
2022/03/08 01:24:34;;;;;;;8.27;5.32;;;;;;;;;;5050411;28;20075;-68
2022/03/08 01:27:00;;;;;;;11.48;5.60;;;;;;;;;;5033770;28;20530;-67
2022/03/08 01:29:26;;;;;;;10.93;5.78;;;;;;;;;;5049822;28;20080;-68
2022/03/08 01:31:52;;;;;;;10.60;5.32;;;;;;;;;;5049817;28;20045;-68
2022/03/08 01:34:18;;;;;;;10.00;5.63;;;;;;;;;;5050101;28;20045;-68
2022/03/08 01:36:44;;;;;;;9.63;6.00;;;2.00;99.90;;;;;;5050110;28;20547;-68
2022/03/08 01:39:09;;;;;;;10.45;5.22;;;2.10;99.90;;;;;;5049684;28;20037;-68
2022/03/08 01:41:35;;;;;;;12.38;5.82;;;;;;;;;;5033408;28;20037;-69
2022/03/08 01:44:01;;;;;;;10.25;5.65;;;;;;;;;;5050188;28;20472;-68
2022/03/08 01:46:27;;;;;;;10.20;5.93;;;;;;;;;;5050134;28;20064;-68
2022/03/08 01:48:53;;;;;;;8.77;5.45;;;;;;;;;;5049911;28;20041;-68
2022/03/08 01:51:21;;;;;;;9.00;5.53;;;1.90;99.90;;;;;;5049686;28;20052;-71
2022/03/08 01:53:47;;;;;;;10.18;5.20;;;;;;;;;;5065277;22;20423;-68
2022/03/08 01:56:13;;;;;;;12.52;6.50;;;2.00;99.90;;;;;;5049878;28;20094;-68
2022/03/08 01:58:39;;;;;;;9.35;5.95;;;;;;;;;;5049010;28;20076;-68
2022/03/08 02:01:06;;;;;;;12.15;6.20;;;;;;;;;;5049220;28;20044;-68
2022/03/08 02:03:32;;;;;;;10.15;5.75;;;;;;;;;;5032813;28;20094;-67
2022/03/08 02:05:58;;;;;;;11.48;6.57;;;;;;;;;;5053206;28;20044;-68
2022/03/08 02:08:26;;;;;;;11.18;5.82;;;1.80;99.90;;;;;;5053086;28;20388;-69
2022/03/08 02:10:52;;;;;;;10.70;6.35;;;;;;;;;;5052998;28;20049;-67
2022/03/08 02:13:19;;;;;;;10.07;6.13;;;;;;;;;;5052920;28;20041;-67
2022/03/08 02:15:51;;;;;;;10.70;5.68;;;;;;;;;;5053066;28;20123;-67
2022/03/08 02:18:18;;;;;;;11.70;7.00;;;1.60;99.90;;;;;;5053315;28;20395;-68
2022/03/08 02:20:44;;;;;;;11.40;6.00;;;;;;;;;;5052985;28;20029;-68
2022/03/08 02:23:10;;;;;;;10.82;6.00;;;;;;;;;;5036243;28;20053;-68
2022/03/08 02:25:36;;;;;;;15.88;6.35;;;;;;;;;;5052790;28;20041;-66
2022/03/08 02:28:02;;;;;;;10.18;5.95;;;;;;;;;;5052706;28;20041;-67
2022/03/08 02:30:28;;;;;;;10.70;6.22;;;;;;;;;;5052437;28;20499;-67
2022/03/08 02:32:54;;;;;;;12.25;7.05;;;1.50;99.90;;;;;;5036032;28;20048;-67
2022/03/08 02:35:22;;;;;;;12.27;7.15;;;;;;;;;;5052733;28;20040;-67
2022/03/08 02:37:53;;;;;;;11.15;6.18;;;;;;;;;;5035970;28;20433;-67
2022/03/08 02:40:22;;;;;;;11.88;6.78;;;1.50;99.90;;;;;;5052520;28;20110;-67
2022/03/08 02:42:48;;;;;;;10.20;6.63;;;;;;;;;;5052653;28;20040;-66
2022/03/08 02:45:16;;;;;;;12.30;7.28;;;;;;;;;;5052462;28;20052;-67
2022/03/08 02:47:42;;;;;;;15.43;6.75;;;;;;;;;;5035758;28;20049;-66
2022/03/08 02:50:09;;;;;;;11.90;6.45;;;;;;;;;;5035774;28;20530;-67
2022/03/08 02:52:35;;;;;;;12.57;6.68;;;;;;;;;;5051995;28;20041;-68
2022/03/08 02:55:01;;;;;;;11.95;6.57;;;;;;;;;;5036120;28;20175;-67
2022/03/08 02:57:27;;;;;;;10.45;6.38;;;;;;;;;;5052509;28;20040;-66
2022/03/08 02:59:53;;;;;;;11.43;6.35;;;;;;;;;;5051359;28;20495;-68
2022/03/08 03:02:19;;;;;;;11.98;7.13;;;;;;;;;;5035463;28;20051;-68
2022/03/08 03:04:46;;;;;;;13.10;7.90;;;;;;;;;;5052308;28;20395;-68
2022/03/08 03:07:13;;;;;;;12.10;6.82;;;1.30;99.90;;;;;;5053052;28;20501;-67
2022/03/08 03:09:39;;;;;;;13.80;6.45;;;1.20;99.90;;;;;;5052158;28;20047;-67
2022/03/08 03:12:05;;;;;;;15.77;7.07;;;1.40;99.90;;;;;;5052299;28;20509;-67
2022/03/08 03:14:31;;;;;;;12.40;7.05;;;;;;;;;;5051647;28;20047;-67
2022/03/08 03:16:57;;;;;;;11.10;6.95;;;;;;;;;;5051871;28;20045;-67
2022/03/08 03:19:23;;;;;;;12.25;6.63;;;;;;;;;;5052762;28;20047;-67
2022/03/08 03:21:48;;;;;;;11.57;7.35;;;;;;;;;;5051641;28;20045;-67
2022/03/08 03:24:14;;;;;;;11.30;6.57;;;;;;;;;;5053017;28;20095;-68
2022/03/08 03:26:40;;;;;;;15.95;7.28;;;;;;;;;;5053477;28;20044;-66
2022/03/08 03:29:06;;;;;;;12.43;7.20;;;;;;;;;;5051389;28;20041;-68
2022/03/08 03:31:32;;;;;;;15.25;7.90;;;;;;;;;;5051465;28;20537;-67
2022/03/08 03:33:58;;;;;;;11.70;7.35;;;;;;;;;;5051328;28;20043;-67
2022/03/08 03:36:24;;;;;;;13.57;7.40;;;;;;;;;;5051421;28;20402;-66
2022/03/08 03:38:50;;;;;;;13.95;7.63;;;;;;;;;;5052767;28;20041;-67
2022/03/08 03:41:16;;;;;;;15.23;7.65;;;;;;;;;;5052839;28;20055;-67
2022/03/08 03:43:42;;;;;;;14.57;7.60;;;1.40;99.90;;;;;;5051489;28;20072;-66
2022/03/08 03:46:08;;;;;;;12.65;7.20;;;;;;;;;;5052620;28;20041;-68
2022/03/08 03:48:34;;;;;;;11.82;6.97;;;;;;;;;;5051514;28;20045;-66
2022/03/08 03:51:00;;;;;;;13.20;8.38;;;1.40;99.90;;;;;;5050925;28;20076;-66
2022/03/08 03:53:26;;;;;;;12.05;7.13;;;;;;;;;;5050987;28;20076;-66
2022/03/08 03:55:52;;;;;;;11.77;7.55;;;;;;;;;;5051502;28;20402;-66
2022/03/08 03:58:18;;;;;;;16.88;8.60;;;;;;;;;;5051431;28;20041;-66
2022/03/08 04:00:44;;;;;;;12.95;7.88;;;;;;;;;;5050496;28;20052;-66
2022/03/08 04:03:10;;;;;;;14.02;8.52;;;;;;;;;;5035104;28;20049;-66
2022/03/08 04:05:36;;;;;;;12.55;8.20;;;;;;;;;;5052487;28;20049;-66
2022/03/08 04:08:02;;;;;;;14.55;8.38;;;;;;;;;;5052339;28;20037;-66
2022/03/08 04:10:28;;;;;;;18.05;8.57;;;1.20;99.90;;;;;;5050752;28;20098;-66
2022/03/08 04:12:54;;;;;;;15.95;8.20;;;;;;;;;;5050922;28;20507;-66
2022/03/08 04:15:20;;;;;;;16.88;9.25;;;;;;;;;;5050858;28;20044;-66
2022/03/08 04:17:46;;;;;;;18.58;10.02;;;;;;;;;;5052316;28;20048;-67
2022/03/08 04:20:12;;;;;;;15.30;9.32;;;;;;;;;;5050356;28;20047;-66
2022/03/08 04:22:38;;;;;;;17.52;9.38;;;;;;;;;;5050570;28;20049;-67
2022/03/08 04:25:04;;;;;;;17.30;9.32;;;1.00;99.90;;;;;;5050847;28;20056;-66
2022/03/08 04:27:30;;;;;;;17.90;9.75;;;1.40;99.90;;;;;;5051152;28;20418;-65
2022/03/08 04:29:56;;;;;;;15.50;8.90;;;;;;;;;;5051445;28;20041;-67
2022/03/08 04:32:22;;;;;;;17.42;10.40;;;;;;;;;;5050463;28;20060;-68
2022/03/08 04:34:48;;;;;;;18.60;10.25;;;;;;;;;;5052063;28;20037;-65
2022/03/08 04:37:14;;;;;;;19.23;9.18;;;;;;;;;;5050526;28;20040;-66
2022/03/08 04:39:40;;;;;;;15.35;9.65;;;;;;;;;;5050162;28;20037;-66
2022/03/08 04:42:06;;;;;;;16.65;9.93;;;;;;;;;;5050247;28;20048;-66
2022/03/08 04:44:32;;;;;;;15.05;9.77;;;1.30;99.90;;;;;;5033645;28;20041;-67
2022/03/08 04:46:57;;;;;;;18.95;9.60;;;;;;;;;;5050200;28;20037;-67
2022/03/08 04:49:25;;;;;;;19.30;10.40;;;;;;;;;;5033379;28;20119;-67
2022/03/08 04:51:51;;;;;;;17.17;10.15;;;;;;;;;;5050091;28;20045;-66
2022/03/08 04:54:17;;;;;;;23.13;10.70;;;;;;;;;;5033644;28;20073;-66
2022/03/08 04:56:43;;;;;;;19.65;10.50;;;;;;;;;;5050382;28;20076;-66
2022/03/08 04:59:09;;;;;;;19.23;10.57;;;;;;;;;;5033013;28;20087;-65
2022/03/08 05:01:34;;;;;;;19.58;11.25;;;1.20;99.90;;;;;;5050109;28;20048;-66
2022/03/08 05:04:00;;;;;;;18.05;10.60;;;;;;;;;;5049960;28;20518;-66
2022/03/08 05:06:30;;;;;;;20.85;11.23;;;;;;;;;;5050285;28;20047;-66
2022/03/08 05:08:55;;;;;;;18.90;9.95;;;;;;;;;;5051047;28;20155;-67
2022/03/08 05:11:21;;;;;;;17.48;11.25;;;;;;;;;;5049840;28;20582;-66
2022/03/08 05:13:47;;;;;;;17.67;11.20;;;;;;;;;;5049932;28;20037;-65
2022/03/08 05:16:13;;;;;;;20.33;11.85;;;;;;;;;;5050302;28;20052;-66
2022/03/08 05:18:39;;;;;;;19.60;11.07;;;;;;;;;;5051408;28;20037;-66
2022/03/08 05:21:05;;;;;;;20.20;10.57;;;1.30;99.90;;;;;;5051492;28;20037;-66
2022/03/08 05:23:31;;;;;;;20.30;11.50;;;;;;;;;;5050031;28;20033;-67
2022/03/08 05:25:57;;;;;;;22.17;11.32;;;;;;;;;;5049976;28;20579;-66
2022/03/08 05:28:23;;;;;;;17.30;10.70;;;;;;;;;;5050075;28;20207;-66
2022/03/08 05:30:50;;;;;;;17.70;11.02;;;;;;;;;;5049872;28;20048;-66
2022/03/08 05:33:17;;;;;;;19.25;10.40;;;;;;;;;;5053197;28;20163;-65
2022/03/08 05:35:43;;;;;;;20.20;10.60;;;;;;;;;;5049822;28;20048;-65
2022/03/08 05:38:09;;;;;;;19.40;10.85;;;;;;;;;;5050629;28;20041;-66
2022/03/08 05:40:35;;;;;;;20.10;11.95;;;;;;;;;;5053613;28;20046;-67
2022/03/08 05:43:01;;;;;;;15.98;9.75;;;;;;;;;;5055139;28;20045;-67
2022/03/08 05:45:27;;;;;;;19.58;12.23;;;;;;;;;;5053640;28;20049;-67
2022/03/08 05:47:53;;;;;;;27.27;12.13;;;;;;;;;;5054791;28;20200;-67
2022/03/08 05:50:19;;;;;;;20.20;11.25;;;1.10;99.90;;;;;;5054520;28;20545;-67
2022/03/08 05:52:45;;;;;;;17.30;10.77;;;;;;;;;;5053093;28;20071;-67
2022/03/08 05:55:11;;;;;;;20.13;11.38;;;;;;;;;;5053495;28;20040;-67
2022/03/08 05:57:37;;;;;;;21.27;11.48;;;;;;;;;;5053401;28;20087;-65
2022/03/08 06:00:04;;;;;;;18.40;11.23;;;;;;;;;;5052942;28;20040;-67
2022/03/08 06:02:30;;;;;;;17.77;11.68;;;;;;;;;;5053420;28;20071;-68
2022/03/08 06:04:56;;;;;;;18.65;10.55;;;;;;;;;;5052960;28;20483;-67
2022/03/08 06:07:22;;;;;;;27.33;14.80;;;;;;;;;;5053128;28;20406;-67
2022/03/08 06:09:48;;;;;;;22.88;12.05;;;1.10;99.90;;;;;;5054318;28;20036;-65
2022/03/08 06:12:14;;;;;;;20.50;12.20;;;;;;;;;;5053028;28;20045;-66
2022/03/08 06:14:40;;;;;;;20.27;12.40;;;;;;;;;;5054430;28;20167;-67
2022/03/08 06:17:07;;;;;;;18.27;11.20;;;;;;;;;;5054389;28;20399;-67
2022/03/08 06:19:33;;;;;;;18.60;10.50;;;;;;;;;;5052510;28;20094;-66
2022/03/08 06:21:59;;;;;;;18.30;11.18;;;;;;;;;;5053255;28;20123;-67
2022/03/08 06:24:25;;;;;;;20.23;11.45;;;;;;;;;;5054332;28;20130;-67
2022/03/08 06:26:51;;;;;;;18.80;11.68;;;;;;;;;;5052930;28;20490;-67
2022/03/08 06:29:17;;;;;;;21.08;12.20;;;;;;;;;;5052626;28;20056;-67
2022/03/08 06:31:43;;;;;;;24.30;11.00;;;;;;;;;;5052644;28;20044;-67
2022/03/08 06:34:09;;;;;;;19.27;11.57;;;;;;;;;;5052931;28;20040;-67
2022/03/08 06:36:36;;;;;;;19.77;11.93;;;;;;;;;;5054172;28;20047;-67
2022/03/08 06:39:03;;;;;;;16.42;9.98;;;;;;;;;;5053878;28;20037;-66
2022/03/08 06:41:29;;;;;;;16.05;10.07;;;;;;;;;;5052474;28;20131;-66
2022/03/08 06:43:55;;;;;;;28.02;11.93;;;;;;;;;;5052814;28;20119;-67
2022/03/08 06:46:21;;;;;;;17.80;10.85;;;;;;;;;;5053738;28;20095;-66
2022/03/08 06:48:46;;;;;;;18.60;11.23;;;1.40;99.90;;;;;;5052426;28;20040;-66
2022/03/08 06:51:14;;;;;;;22.40;12.15;;;;;;;;;;5051762;28;20047;-68
2022/03/08 06:53:40;;;;;;;20.55;10.32;;;;;;;;;;5052616;28;20391;-67
2022/03/08 06:56:06;;;;;;;19.70;10.73;;;;;;;;;;5052345;28;20110;-67
2022/03/08 06:58:32;;;;;;;18.08;9.88;;;;;;;;;;5053377;28;20041;-66
2022/03/08 07:00:58;;;;;;;18.13;11.00;;;;;;;;;;5051964;28;20434;-67
2022/03/08 07:03:24;;;;;;;18.85;11.02;;;;;;;;;;5052423;28;20123;-68
2022/03/08 07:05:50;;;;;;;19.80;10.23;;;;;;;;;;5052138;28;20565;-69
2022/03/08 07:08:16;;;;;;;20.95;11.23;;;;;;;;;;5052342;28;20045;-66
2022/03/08 07:10:42;;;;;;;20.67;11.75;;;;;;;;;;5051757;28;20048;-66
2022/03/08 07:13:08;;;;;;;17.90;10.50;;;;;;;;;;5051916;28;20036;-66
2022/03/08 07:15:34;;;;;;;19.15;10.63;;;1.80;99.90;;;;;;5052336;28;20506;-67
2022/03/08 07:18:00;;;;;;;18.02;10.55;;;1.80;99.90;;;;;;5052081;28;20041;-67
2022/03/08 07:20:26;;;;;;;17.10;9.88;;;;;;;;;;5052059;28;20460;-67
2022/03/08 07:22:52;;;;;;;17.23;9.65;;;;;;;;;;5052264;28;20144;-67
2022/03/08 07:25:18;;;;;;;17.13;9.93;;;;;;;;;;5052125;28;20095;-67
2022/03/08 07:27:44;;;;;;;18.30;10.13;;;;;;;;;;5053074;28;20041;-67
2022/03/08 07:30:10;;;;;;;13.43;8.93;;;;;;;;;;5051555;28;20082;-68
2022/03/08 07:32:36;;;;;;;14.77;9.30;;;;;;;;;;5051693;28;20372;-67
2022/03/08 07:35:04;;;;;;;14.55;8.57;;;2.30;99.90;;;;;;5053008;28;20044;-67
2022/03/08 07:37:33;;;;;;;15.40;9.10;;;;;;;;;;5051575;28;20041;-67
2022/03/08 07:39:59;;;;;;;15.48;9.57;;;2.20;99.90;;;;;;5051236;28;20043;-67
2022/03/08 07:42:27;;;;;;;19.92;9.95;;;;;;;;;;5051361;28;20124;-68
2022/03/08 07:44:53;;;;;;;14.73;9.32;;;;;;;;;;5034991;28;20051;-67
2022/03/08 07:47:19;;;;;;;14.15;9.18;;;;;;;;;;5051298;28;20076;-67
2022/03/08 07:49:45;;;;;;;15.73;8.35;;;2.70;99.90;;;;;;5034624;28;20044;-67
2022/03/08 07:52:11;;;;;;;14.90;9.20;;;2.50;99.90;;;;;;5051495;28;20445;-68
2022/03/08 07:54:37;;;;;;;14.82;8.93;;;;;;;;;;5074714;22;20044;-69
2022/03/08 07:57:03;;;;;;;15.55;9.35;;;;;;;;;;5051387;28;20051;-69
2022/03/08 07:59:29;;;;;;;13.45;9.10;;;;;;;;;;5051179;28;20033;-69
2022/03/08 08:01:55;;;;;;;13.18;8.55;;;;;;;;;;5050593;28;20072;-69
2022/03/08 08:04:21;;;;;;;15.73;9.65;;;;;;;;;;5051164;28;20049;-69
2022/03/08 08:06:47;;;;;;;18.45;9.23;;;;;;;;;;5051403;28;20059;-69
2022/03/08 08:09:12;;;;;;;13.68;9.07;;;3.20;99.90;;;;;;5051041;28;20044;-69
2022/03/08 08:11:39;;;;;;;15.90;9.25;;;;;;;;;;5051007;28;20041;-69
2022/03/08 08:14:04;;;;;;;12.88;8.90;;;3.20;99.90;;;;;;5051016;28;20124;-69
2022/03/08 08:16:30;;;;;;;14.10;9.30;;;;;;;;;;5051044;28;20128;-70
2022/03/08 08:18:58;;;;;;;13.85;8.73;;;;;;;;;;5050817;28;20033;-69
2022/03/08 08:21:24;;;;;;;12.98;8.32;;;;;;;;;;5034140;28;20041;-69
2022/03/08 08:23:50;;;;;;;12.45;8.88;;;;;;;;;;5051090;28;20037;-69
2022/03/08 08:26:16;;;;;;;14.00;8.32;;;;;;;;;;5050858;28;20037;-69
2022/03/08 08:28:42;;;;;;;12.55;8.48;;;3.60;99.90;;;;;;5034428;28;20041;-69
2022/03/08 08:31:08;;;;;;;13.20;8.05;;;;;;;;;;5050495;28;20040;-69
2022/03/08 08:33:34;;;;;;;12.13;8.95;;;3.80;99.90;;;;;;5050597;28;20040;-69
2022/03/08 08:36:00;;;;;;;15.65;9.25;;;3.80;99.90;;;;;;5034025;28;20040;-69
2022/03/08 08:38:26;;;;;;;15.35;8.77;;;;;;;;;;5050656;28;20048;-70
2022/03/08 08:40:52;;;;;;;12.95;8.50;;;;;;;;;;5033929;28;20041;-69
2022/03/08 08:43:19;;;;;;;20.83;9.32;;;;;;;;;;5050550;28;20072;-69
2022/03/08 08:45:51;;;;;;;16.45;9.38;;;;;;;;;;5050499;28;20102;-69
2022/03/08 08:48:17;;;;;;;14.05;8.48;;;;;;;;;;5034101;28;20041;-69
2022/03/08 08:50:43;;;;;;;14.15;8.60;;;;;;;;;;5051442;28;20084;-69
2022/03/08 08:53:08;;;;;;;14.50;8.68;;;4.50;99.90;;;;;;5051768;28;20068;-69
2022/03/08 08:55:36;;;;;;;11.68;8.45;;;;;;;;;;5050525;28;20041;-70
2022/03/08 08:58:02;;;;;;;10.90;7.90;;;;;;;;;;5050602;28;20071;-70
2022/03/08 09:00:28;;;;;;;11.75;8.20;;;;;;;;;;5050204;28;20040;-70
2022/03/08 09:02:54;;;;;;;12.93;8.40;;;;;;;;;;5033668;28;20482;-69
2022/03/08 09:05:21;;;;;;;12.50;7.75;;;;;;;;;;5050357;28;20123;-69
2022/03/08 09:07:47;;;;;;;9.57;7.03;;;;;;;;;;5050631;28;20053;-69
2022/03/08 09:10:13;;;;;;;11.27;7.82;;;5.20;99.90;;;;;;5050213;28;20217;-69
2022/03/08 09:12:39;;;;;;;12.75;8.15;;;;;;;;;;5034322;28;20464;-69
2022/03/08 09:15:06;;;;;;;12.15;8.15;;;;;;;;;;5056791;28;20132;-69
2022/03/08 09:17:32;;;;;;;10.95;7.32;;;;;;;;;;5040129;28;20043;-69
2022/03/08 09:19:57;;;;;;;10.52;7.28;;;;;;;;;;5056527;28;20421;-69
2022/03/08 09:22:24;;;;;;;9.45;7.25;;;;;;;;;;5057060;28;20037;-69
2022/03/08 09:24:50;;;;;;;11.35;7.50;;;;;;;;;;5040188;28;20047;-69
2022/03/08 09:27:16;;;;;;;10.98;6.80;;;;;;;;;;5056726;28;20044;-69
2022/03/08 09:29:42;;;;;;;9.48;7.15;;;;;;;;;;5056460;28;20049;-69
2022/03/08 09:32:08;;;;;;;10.02;6.93;;;;;;;;;;5056844;28;20068;-70
2022/03/08 09:34:34;;;;;;;12.27;7.40;;;;;;;;;;5056768;28;20486;-69
2022/03/08 09:37:00;;;;;;;9.65;7.35;;;;;;;;;;5056681;28;20098;-69
2022/03/08 09:39:26;;;;;;;15.07;7.45;;;6.10;99.90;;;;;;5056400;28;20365;-69
2022/03/08 09:41:55;;;;;;;10.25;7.00;;;;;;;;;;5056640;28;20505;-69
2022/03/08 09:44:22;;;;;;;9.18;6.78;;;6.20;99.90;;;;;;5056435;28;20080;-70
2022/03/08 09:46:47;;;;;;;10.27;6.90;;;6.30;99.90;;;;;;5056618;28;20045;-69
2022/03/08 09:49:13;;;;;;;10.40;6.85;;;;;;;;;;5056276;28;20040;-70
2022/03/08 09:51:39;;;;;;;8.70;6.35;;;;;;;;;;5056455;28;20041;-70
2022/03/08 09:54:05;;;;;;;11.10;7.43;;;6.50;99.90;;;;;;5039694;28;20449;-69
2022/03/08 09:56:32;;;;;;;10.38;6.35;;;6.80;99.90;;;;;;5056707;28;20491;-70
2022/03/08 09:58:59;;;;;;;11.57;6.40;;;6.90;99.90;;;;;;5055899;28;20051;-70
2022/03/08 10:01:27;;;;;;;8.93;6.38;;;;;;;;;;5056521;28;20045;-70
2022/03/08 10:03:53;;;;;;;11.48;6.50;;;;;;;;;;5056590;28;20095;-70
2022/03/08 10:06:19;;;;;;;5.95;5.30;;;;;;;;;;5056355;28;20037;-69
2022/03/08 10:08:46;;;;;;;7.30;5.82;;;;;;;;;;5039633;28;20556;-70
2022/03/08 10:11:14;;;;;;;8.18;6.00;;;;;;;;;;5056520;28;20079;-69
2022/03/08 10:13:45;;;;;;;8.93;6.45;;;;;;;;;;5056167;28;20102;-69
2022/03/08 10:16:22;;;;;;;9.65;5.88;;;;;;;;;;5056568;28;20076;-69
2022/03/08 10:18:50;;;;;;;12.43;6.50;;;;;;;;;;5039618;28;20032;-70
2022/03/08 10:21:30;;;;;;;9.35;6.03;;;;;;;;;;5056070;28;20033;-70
2022/03/08 10:24:04;;;;;;;8.57;6.50;;;7.60;99.90;;;;;;5056135;28;20040;-70
2022/03/08 10:26:33;;;;;;;8.10;5.65;;;;;;;;;;5035740;28;20077;-70
2022/03/08 10:28:59;;;;;;;8.88;5.78;;;;;;;;;;5052899;28;20128;-70
2022/03/08 10:31:25;;;;;;;7.72;5.05;;;7.80;99.90;;;;;;5053253;28;20412;-71
2022/03/08 10:33:51;;;;;;;6.90;5.53;;;7.70;99.90;;;;;;5052814;28;20128;-70
2022/03/08 10:36:23;;;;;;;9.75;5.25;;;7.70;99.90;;;;;;5053252;28;20037;-70
2022/03/08 10:39:24;;;;;;;7.03;5.57;;;7.90;99.90;;;;;;5036268;28;20036;-70
2022/03/08 10:41:52;;;;;;;5.78;4.70;;;;;;;;;;4992371;28;20109;-70
2022/03/08 10:44:30;;;;;;;8.52;5.93;;;;;;;;;;5037588;28;20472;-69
2022/03/08 10:47:16;;;;;;;8.43;5.82;;;;;;;;;;5052685;28;20051;-70
2022/03/08 10:49:56;;;;;;;8.60;5.30;;;;;;;;;;5052433;28;20044;-70
2022/03/08 10:52:27;;;;;;;9.13;5.47;;;;;;;;;;5052490;28;20045;-70
2022/03/08 10:54:53;;;;;;;8.88;5.68;;;;;;;;;;5052537;28;20068;-70
2022/03/08 10:57:18;;;;;;;8.82;5.78;;;8.40;99.90;;;;;;5035956;28;20036;-70
2022/03/08 10:59:55;;;;;;;7.32;5.32;;;8.30;99.90;;;;;;5035471;28;20068;-70
2022/03/08 11:02:22;;;;;;;8.55;5.28;;;8.40;99.90;;;;;;5036128;28;20582;-70
2022/03/08 11:04:49;;;;;;;8.40;5.15;;;;;;;;;;5052243;28;20120;-70
2022/03/08 11:07:20;;;;;;;12.10;5.10;;;;;;;;;;5052460;28;20114;-70
2022/03/08 11:09:49;;;;;;;9.18;5.30;;;;;;;;;;5053630;28;20044;-70
2022/03/08 11:12:15;;;;;;;7.30;5.65;;;;;;;;;;5052277;28;20136;-70
2022/03/08 11:14:41;;;;;;;11.02;5.28;;;;;;;;;;5052193;28;20064;-70
2022/03/08 11:17:07;;;;;;;8.25;4.88;;;;;;;;;;5035886;28;20033;-70
2022/03/08 11:19:33;;;;;;;8.43;5.30;;;;;;;;;;5051797;28;20044;-70
2022/03/08 11:21:59;;;;;;;6.38;4.43;;;8.80;97.70;;;;;;5035442;28;20091;-70
2022/03/08 11:24:25;;;;;;;7.45;4.68;;;8.80;97.00;;;;;;5052371;28;20041;-70
2022/03/08 11:26:52;;;;;;;7.05;4.50;;;;;;;;;;5052130;28;20118;-70
2022/03/08 11:29:18;;;;;;;7.95;5.15;;;8.90;96.60;;;;;;5035114;28;20127;-70
2022/03/08 11:31:46;;;;;;;6.15;4.07;;;8.90;96.60;;;;;;5051877;28;20072;-70
2022/03/08 11:34:40;;;;;;;6.30;5.00;;;8.90;97.00;;;;;;5051807;28;20064;-70
2022/03/08 11:37:18;;;;;;;10.77;5.63;;;8.80;97.20;;;;;;5035486;28;20051;-70
2022/03/08 11:39:44;;;;;;;7.80;4.97;;;9.10;97.70;;;;;;5051599;28;20124;-70
2022/03/08 11:42:26;;;;;;;9.15;4.90;;;9.10;97.40;;;;;;5051847;28;20124;-70
2022/03/08 11:45:00;;;;;;;7.45;5.35;;;9.20;96.50;;;;;;5051766;28;20044;-70
2022/03/08 11:47:43;;;;;;;5.43;4.78;;;9.20;95.80;;;;;;5035418;28;20075;-70
2022/03/08 11:50:48;;;;;;;6.63;4.85;;;9.00;96.40;;;;;;5051701;28;20415;-70
2022/03/08 11:53:16;;;;;;;7.05;4.80;;;9.40;95.30;;;;;;5047771;28;20052;-70
2022/03/08 11:55:45;;;;;;;7.43;4.57;;;9.10;95.10;;;;;;5051437;28;20048;-70
2022/03/08 11:58:20;;;;;;;8.15;4.70;;;9.20;96.50;;;;;;5051520;28;20041;-70
2022/03/08 12:00:56;;;;;;;6.10;4.43;;;9.30;96.00;;;;;;5034436;28;20045;-70
2022/03/08 12:03:21;;;;;;;5.53;4.60;;;;;;;;;;5051411;28;20499;-70
2022/03/08 12:05:53;;;;;;;7.97;5.25;;;9.30;96.30;;;;;;5051578;28;20052;-70
2022/03/08 12:08:28;;;;;;;7.68;5.40;;;9.50;95.00;;;;;;5051304;28;20048;-70
2022/03/08 12:11:03;;;;;;;7.78;4.93;;;9.30;95.90;;;;;;5051512;28;20407;-70
2022/03/08 12:13:35;;;;;;;6.25;4.50;;;9.40;94.80;;;;;;5051996;28;20037;-70
2022/03/08 12:16:09;;;;;;;6.80;5.00;;;9.50;96.20;;;;;;5034626;28;20040;-70
2022/03/08 12:18:35;;;;;;;6.35;4.68;;;;;;;;;;5051040;28;20032;-71
2022/03/08 12:21:25;;;;;;;7.75;4.85;;;9.50;95.20;;;;;;5034407;28;20044;-70
2022/03/08 12:23:55;;;;;;;6.47;4.82;;;9.40;94.30;;;;;;5051185;28;20399;-70
2022/03/08 12:27:02;;;;;;;7.05;4.38;;;9.30;96.10;;;;;;5050836;28;20041;-70
2022/03/08 12:29:46;;;;;;;7.55;5.07;;;9.70;95.90;;;;;;4974091;28;20043;-70
2022/03/08 12:32:22;;;;;;;6.13;4.43;;;9.70;95.00;;;;;;4974357;28;20105;-71
2022/03/08 12:34:51;;;;;;;5.88;4.75;;;9.80;95.00;;;;;;5025376;28;20083;-71
2022/03/08 12:37:17;;;;;;;6.57;4.45;;;9.90;95.90;;;;;;5051028;28;20510;-70
2022/03/08 12:39:50;;;;;;;7.32;4.82;;;9.90;95.20;;;;;;5050313;28;20041;-70
2022/03/08 12:42:25;;;;;;;6.80;5.22;;;9.70;96.10;;;;;;5050452;28;20049;-70
2022/03/08 12:44:56;;;;;;;5.63;4.53;;;9.90;93.80;;;;;;5050649;28;20069;-71
2022/03/08 12:47:22;;;;;;;7.72;4.93;;;9.70;95.10;;;;;;5050274;28;20037;-69
2022/03/08 12:49:49;;;;;;;6.88;4.63;;;9.70;95.40;;;;;;5033452;28;20040;-70
2022/03/08 12:52:16;;;;;;;6.38;4.50;;;9.60;94.50;;;;;;5050475;28;20037;-70
2022/03/08 12:54:43;;;;;;;7.00;4.57;;;9.80;94.30;;;;;;5033636;28;20115;-70
2022/03/08 12:57:13;;;;;;;5.65;3.80;;;;;;;;;;5050492;28;20482;-70
2022/03/08 12:59:49;;;;;;;5.80;3.67;;;10.10;95.30;;;;;;5049660;28;20086;-70
2022/03/08 13:02:15;;;;;;;5.65;4.30;;;9.90;94.70;;;;;;5050649;28;20414;-70
2022/03/08 13:04:42;;;;;;;4.18;3.70;;;;;;;;;;5050035;28;20090;-70
2022/03/08 13:07:18;;;;;;;6.72;3.65;;;10.20;93.50;;;;;;5033594;28;20045;-71
2022/03/08 13:09:55;;;;;;;7.55;3.72;;;10.10;92.60;;;;;;5033694;28;20110;-70
2022/03/08 13:12:24;;;;;;;4.95;3.28;;;9.90;94.40;;;;;;5033499;28;20529;-70
2022/03/08 13:15:16;;;;;;;6.22;3.38;;;10.10;93.80;;;;;;5050197;28;20083;-70
2022/03/08 13:17:43;;;;;;;5.13;3.35;;;10.20;93.70;;;;;;5050287;28;20483;-70
2022/03/08 13:20:31;;;;;;;6.18;3.25;;;10.20;93.90;;;;;;5049951;28;20037;-70
2022/03/08 13:23:00;;;;;;;4.60;3.05;;;10.20;92.50;;;;;;5050134;28;20094;-70
2022/03/08 13:25:27;;;;;;;7.25;3.30;;;10.20;92.90;;;;;;5050202;28;20174;-70
2022/03/08 13:28:01;;;;;;;5.45;3.40;;;10.30;92.70;;;;;;5050372;28;20076;-70
2022/03/08 13:30:30;;;;;;;5.93;3.83;;;10.10;92.60;;;;;;5049835;28;20047;-70
2022/03/08 13:33:13;;;;;;;4.20;2.78;;;10.20;92.80;;;;;;5049873;28;20072;-70
2022/03/08 13:35:41;;;;;;;5.53;3.05;;;10.40;92.00;;;;;;5050150;28;20064;-70
2022/03/08 13:38:28;;;;;;;8.02;4.22;;;10.20;93.00;;;;;;5049985;28;20048;-68
2022/03/08 13:40:55;;;;;;;4.10;2.95;;;10.40;91.90;;;;;;5049818;28;20093;-70
2022/03/08 13:43:22;;;;;;;5.32;3.63;;;10.50;93.20;;;;;;5049940;28;20052;-70
2022/03/08 13:45:48;;;;;;;8.02;4.20;;;10.30;92.40;;;;;;5033713;28;20508;-71
2022/03/08 13:48:25;;;;;;;6.93;3.20;;;10.30;92.80;;;;;;5049963;28;20517;-70
2022/03/08 13:50:51;;;;;;;5.05;3.90;;;10.40;93.40;;;;;;5049631;28;20041;-70
2022/03/08 13:53:18;;;;;;;5.97;3.95;;;10.10;92.50;;;;;;5056755;22;20048;-67
2022/03/08 13:55:45;;;;;;;9.45;3.80;;;10.10;94.00;;;;;;5012994;28;20045;-68
2022/03/08 13:58:17;;;;;;;4.28;3.08;;;10.40;91.80;;;;;;5031243;28;20069;-66